Impacts METAR Board
IDs:

KGTU - Georgetown Muni, TX, US

Updated at: 0800 UTC 13 Aug 2022
Potential Impact None Slight Moderate High
Time 12/20Z 12/21Z 12/22Z 12/23Z 13/00Z 13/01Z 13/02Z 13/03Z 13/04Z 13/05Z 13/06Z 13/07Z 13/08Z
Temp97 99 97 98 96 92 87 85 84 83 82 81 79
Dewpt67 65 64 65 64 67 69 70 70 70 69 70 69
Altim29.99 29.96 29.95 29.94 29.94 29.95 29.98 30.00 30.02 30.02 30.03 30.02 30.02
VIS10 10 10 10 10 10 10 10 10 10 10 10 10
CIG-- -- 120 -- -- 80 -- -- -- -- -- -- --
CoverSCTSCTBKNFEWCLRBKNCLRCLRCLRFEWCLRCLRCLR
FltCatVFRVFRVFRVFRVFRVFRVFRVFRVFRVFRVFRVFRVFR
WX--------------------------
WDir40605070801101201501600000
WSpd10 7 9 10 6 10 9 7 4 0 0 0 0
WGst17 16 -- 16 16 17 -- -- -- -- -- -- --
Raw hourly METARs
KGTU 121956Z 04010G17KT 10SM FEW065 SCT100 36/19 A2999 RMK AO2 SLP143 T03610194
KGTU 122056Z 06007G16KT 030V090 10SM SCT120 37/18 A2996 RMK AO2 SLP136 T03720183 58020
KGTU 122156Z 05009KT 10SM SCT075 SCT095 BKN120 36/18 A2995 RMK AO2 SLP131 T03610178
KGTU 122256Z 07010G16KT 10SM FEW075 37/18 A2994 RMK AO2 SLP128 T03670183
KGTU 122356Z 08006G16KT 10SM CLR 36/18 A2994 RMK AO2 SLP129 T03560178 10378 20344 56009
KGTU 130056Z 11010G17KT 10SM BKN080 33/19 A2995 RMK AO2 SLP134 T03330194
KGTU 130156Z 12009KT 10SM CLR 31/21 A2998 RMK AO2 SLP144 T03060206
KGTU 130256Z 15007KT 110V170 10SM CLR 29/21 A3000 RMK AO2 SLP150 T02940211 53022
KGTU 130356Z 16004KT 10SM CLR 29/21 A3002 RMK AO2 SLP156 T02890211
KGTU 130456Z 00000KT 10SM FEW100 28/21 A3002 RMK AO2 SLP156 T02830211
KGTU 130556Z 00000KT 10SM CLR 28/21 A3003 RMK AO2 SLP158 T02780206 10361 20278 403780239 51007
KGTU 130656Z 00000KT 10SM CLR 27/21 A3002 RMK AO2 SLP156 T02720211
KGTU 130756Z 00000KT 10SM CLR 26/21 A3002 RMK AO2 SLP157 T02610206